Time,TemperatureF,DewpointF,PressureIn,WindDirection,WindDirectionDegrees,WindSpeedMPH,WindSpeedGustMPH,Humidity,HourlyPrecipIn,Conditions,Clouds,dailyrainin,SoftwareType,DateUTC
2013-05-19 00:13:00,69.8,69.2,29.93,South,180,1.6,-999.0,98,-99.99,,,0.00,Acu-Link.com,2013-05-19 04:13:00,
2013-05-19 00:28:00,69.4,69.1,29.92,SSE,157,1.6,-999.0,99,-99.99,,,0.00,Acu-Link.com,2013-05-19 04:28:00,
2013-05-19 00:43:00,69.3,68.7,29.92,ESE,112,0.0,-999.0,98,-99.99,,,0.00,Acu-Link.com,2013-05-19 04:43:00,
2013-05-19 00:58:00,68.7,68.4,29.92,WNW,292,0.0,-999.0,99,-99.99,,,0.00,Acu-Link.com,2013-05-19 04:58:00,
2013-05-19 01:14:00,68.7,68.4,29.92,SE,135,0.0,-999.0,99,-99.99,,,0.00,Acu-Link.com,2013-05-19 05:14:00,
2013-05-19 01:29:00,68.5,68.2,29.91,SSE,157,0.0,-999.0,99,-99.99,,,0.00,Acu-Link.com,2013-05-19 05:29:00,
2013-05-19 01:44:00,68.4,68.1,29.91,ESE,112,0.0,-999.0,99,-99.99,,,0.00,Acu-Link.com,2013-05-19 05:44:00,
2013-05-19 01:59:00,68.2,67.9,29.90,ESE,112,0.0,-999.0,99,-99.99,,,0.00,Acu-Link.com,2013-05-19 05:59:00,
2013-05-19 02:14:00,68.0,67.7,29.91,ESE,112,0.0,-999.0,99,-99.99,,,0.00,Acu-Link.com,2013-05-19 06:14:00,
2013-05-19 02:30:00,68.0,67.7,29.90,ESE,112,0.0,-999.0,99,-99.99,,,0.00,Acu-Link.com,2013-05-19 06:30:00,
2013-05-19 02:45:00,67.8,67.5,29.90,ESE,112,0.0,-999.0,99,-99.99,,,0.00,Acu-Link.com,2013-05-19 06:45:00,
2013-05-19 03:00:00,67.8,67.5,29.90,ESE,112,0.0,-999.0,99,-99.99,,,0.00,Acu-Link.com,2013-05-19 07:00:00,
2013-05-19 03:15:00,67.6,67.3,29.89,ESE,112,0.0,-999.0,99,-99.99,,,0.00,Acu-Link.com,2013-05-19 07:15:00,
2013-05-19 03:31:00,67.8,67.5,29.89,SE,135,0.0,-999.0,99,-99.99,,,0.00,Acu-Link.com,2013-05-19 07:31:00,
2013-05-19 03:46:00,67.8,67.5,29.89,ESE,112,1.1,-999.0,99,-99.99,,,0.00,Acu-Link.com,2013-05-19 07:46:00,
2013-05-19 04:01:00,68.2,67.9,29.89,South,180,0.0,-999.0,99,-99.99,,,0.00,Acu-Link.com,2013-05-19 08:01:00,
2013-05-19 04:17:00,68.2,67.9,29.89,SSE,157,0.0,-999.0,99,-99.99,,,0.00,Acu-Link.com,2013-05-19 08:17:00,
2013-05-19 04:33:00,68.4,68.1,29.89,SSE,157,0.0,-999.0,99,-99.99,,,0.00,Acu-Link.com,2013-05-19 08:33:00,
2013-05-19 04:48:00,68.4,68.1,29.89,ESE,112,0.0,-999.0,99,-99.99,,,0.00,Acu-Link.com,2013-05-19 08:48:00,
2013-05-19 05:03:00,68.4,68.1,29.89,SSE,157,0.0,-999.0,99,-99.99,,,0.00,Acu-Link.com,2013-05-19 09:03:00,
2013-05-19 05:18:00,68.2,67.9,29.89,East,90,0.0,-999.0,99,-99.99,,,0.00,Acu-Link.com,2013-05-19 09:18:00,
2013-05-19 05:33:00,68.2,67.9,29.90,ESE,112,0.0,-999.0,99,-99.99,,,0.00,Acu-Link.com,2013-05-19 09:33:00,
2013-05-19 05:48:00,68.7,68.4,29.90,SSE,157,0.0,-999.0,99,-99.99,,,0.00,Acu-Link.com,2013-05-19 09:48:00,
2013-05-19 06:04:00,68.7,68.4,29.90,SE,135,0.0,-999.0,99,-99.99,,,0.00,Acu-Link.com,2013-05-19 10:04:00,
2013-05-19 06:19:00,68.7,68.4,29.90,ESE,112,0.0,-999.0,99,-99.99,,,0.00,Acu-Link.com,2013-05-19 10:19:00,
2013-05-19 06:34:00,68.5,68.2,29.90,ESE,112,0.0,-999.0,99,-99.99,,,0.00,Acu-Link.com,2013-05-19 10:34:00,
2013-05-19 06:49:00,68.4,68.1,29.91,East,90,0.0,-999.0,99,-99.99,,,0.00,Acu-Link.com,2013-05-19 10:49:00,
2013-05-19 07:05:00,68.4,68.1,29.91,SSE,157,0.0,-999.0,99,-99.99,,,0.00,Acu-Link.com,2013-05-19 11:05:00,
2013-05-19 07:20:00,68.9,68.6,29.92,ESE,112,0.0,-999.0,99,-99.99,,,0.00,Acu-Link.com,2013-05-19 11:20:00,
2013-05-19 07:35:00,70.7,70.4,29.92,SSE,157,1.6,-999.0,99,-99.99,,,0.00,Acu-Link.com,2013-05-19 11:35:00,
2013-05-19 07:51:00,72.5,71.3,29.91,SE,135,2.2,-999.0,96,-99.99,,,0.00,Acu-Link.com,2013-05-19 11:51:00,
2013-05-19 08:06:00,72.7,70.8,29.91,SSE,157,2.2,-999.0,94,-99.99,,,0.00,Acu-Link.com,2013-05-19 12:06:00,
2013-05-19 08:21:00,73.4,71.6,29.91,SE,135,1.1,-999.0,94,-99.99,,,0.00,Acu-Link.com,2013-05-19 12:21:00,
2013-05-19 08:37:00,74.5,72.0,29.92,NNE,22,0.0,-999.0,92,-99.99,,,0.00,Acu-Link.com,2013-05-19 12:37:00,
2013-05-19 08:52:00,75.6,72.7,29.93,NW,315,1.6,-999.0,91,-99.99,,,0.00,Acu-Link.com,2013-05-19 12:52:00,
2013-05-19 09:07:00,76.3,72.8,29.93,SSE,157,2.2,-999.0,89,-99.99,,,0.01,Acu-Link.com,2013-05-19 13:07:00,
2013-05-19 09:22:00,77.7,74.5,29.93,SW,225,1.6,-999.0,90,-99.99,,,0.01,Acu-Link.com,2013-05-19 13:22:00,
2013-05-19 09:38:00,78.4,73.9,29.93,NE,45,0.0,-999.0,86,-99.99,,,0.01,Acu-Link.com,2013-05-19 13:38:00,
2013-05-19 09:53:00,79.2,73.9,29.93,WNW,292,0.0,-999.0,84,-99.99,,,0.01,Acu-Link.com,2013-05-19 13:53:00,
2013-05-19 10:08:00,79.5,73.5,29.93,SSE,157,1.6,-999.0,82,-99.99,,,0.01,Acu-Link.com,2013-05-19 14:08:00,
2013-05-19 10:24:00,80.2,73.5,29.94,West,270,3.8,-999.0,80,-99.99,,,0.01,Acu-Link.com,2013-05-19 14:24:00,
2013-05-19 10:39:00,81.1,74.0,29.93,ESE,112,1.1,-999.0,79,-99.99,,,0.01,Acu-Link.com,2013-05-19 14:39:00,
2013-05-19 10:54:00,81.1,73.6,29.93,SE,135,1.1,-999.0,78,-99.99,,,0.01,Acu-Link.com,2013-05-19 14:54:00,
2013-05-19 11:10:00,82.2,74.3,29.93,North,0,1.1,-999.0,77,-99.99,,,0.01,Acu-Link.com,2013-05-19 15:10:00,
2013-05-19 11:25:00,83.7,74.5,29.93,WNW,292,1.1,-999.0,74,-99.99,,,0.01,Acu-Link.com,2013-05-19 15:25:00,
2013-05-19 11:40:00,83.8,74.2,29.93,SSE,157,1.6,-999.0,73,-99.99,,,0.01,Acu-Link.com,2013-05-19 15:40:00,
2013-05-19 11:55:00,84.2,74.2,29.93,SE,135,1.1,-999.0,72,-99.99,,,0.01,Acu-Link.com,2013-05-19 15:55:00,
2013-05-19 12:11:00,85.6,74.7,29.93,West,270,1.6,-999.0,70,-99.99,,,0.01,Acu-Link.com,2013-05-19 16:11:00,
2013-05-19 12:26:00,86.0,74.2,29.93,SW,225,1.6,-999.0,68,-99.99,,,0.01,Acu-Link.com,2013-05-19 16:26:00,
2013-05-19 12:41:00,86.5,74.2,29.91,WNW,292,0.0,-999.0,67,-99.99,,,0.01,Acu-Link.com,2013-05-19 16:41:00,
2013-05-19 12:56:00,86.7,73.1,29.91,ESE,112,0.0,-999.0,64,-99.99,,,0.01,Acu-Link.com,2013-05-19 16:56:00,
2013-05-19 13:11:00,87.1,71.0,29.91,NNE,22,1.6,-999.0,59,-99.99,,,0.01,Acu-Link.com,2013-05-19 17:11:00,
2013-05-19 13:27:00,88.2,73.5,29.90,West,270,2.7,-999.0,62,-99.99,,,0.01,Acu-Link.com,2013-05-19 17:27:00,
2013-05-19 13:42:00,89.2,72.0,29.89,SW,225,0.0,-999.0,57,-99.99,,,0.01,Acu-Link.com,2013-05-19 17:42:00,
2013-05-19 13:57:00,87.6,73.0,29.88,SSE,157,0.0,-999.0,62,-99.99,,,0.01,Acu-Link.com,2013-05-19 17:57:00,
2013-05-19 14:13:00,89.6,71.8,29.88,ENE,67,1.6,-999.0,56,-99.99,,,0.01,Acu-Link.com,2013-05-19 18:13:00,
2013-05-19 14:28:00,91.2,72.2,29.87,East,90,1.1,-999.0,54,-99.99,,,0.01,Acu-Link.com,2013-05-19 18:28:00,
2013-05-19 14:43:00,90.5,71.5,29.86,SE,135,2.2,-999.0,54,-99.99,,,0.01,Acu-Link.com,2013-05-19 18:43:00,
2013-05-19 14:58:00,88.0,71.8,29.86,SSE,157,4.7,-999.0,59,-99.99,,,0.01,Acu-Link.com,2013-05-19 18:58:00,
2013-05-19 15:14:00,86.2,72.5,29.85,NE,45,2.7,-999.0,64,-99.99,,,0.01,Acu-Link.com,2013-05-19 19:14:00,
2013-05-19 15:29:00,86.9,72.3,29.85,SE,135,3.1,-999.0,62,-99.99,,,0.01,Acu-Link.com,2013-05-19 19:29:00,
2013-05-19 15:44:00,83.7,72.4,29.85,ENE,67,2.2,-999.0,69,-99.99,,,0.01,Acu-Link.com,2013-05-19 19:44:00,
2013-05-19 16:00:00,84.0,71.9,29.85,East,90,2.7,-999.0,67,-99.99,,,0.01,Acu-Link.com,2013-05-19 20:00:00,
2013-05-19 16:15:00,82.2,72.3,29.85,NE,45,2.2,-999.0,72,-99.99,,,0.01,Acu-Link.com,2013-05-19 20:15:00,
2013-05-19 16:30:00,81.9,71.5,29.85,SSE,157,4.7,-999.0,71,-99.99,,,0.01,Acu-Link.com,2013-05-19 20:30:00,
2013-05-19 16:46:00,82.0,73.3,29.83,SSE,157,2.7,-999.0,75,-99.99,,,0.01,Acu-Link.com,2013-05-19 20:46:00,
2013-05-19 17:01:00,81.7,73.7,29.84,South,180,3.8,-999.0,77,-99.99,,,0.01,Acu-Link.com,2013-05-19 21:01:00,
2013-05-19 17:16:00,77.7,67.1,29.88,SSE,157,3.8,-999.0,70,-99.99,,,0.01,Acu-Link.com,2013-05-19 21:16:00,
2013-05-19 17:31:00,75.9,66.6,29.88,ESE,112,2.7,-999.0,73,-99.99,,,0.01,Acu-Link.com,2013-05-19 21:31:00,
2013-05-19 17:46:00,73.9,69.5,29.88,SSE,157,4.3,-999.0,86,-99.99,,,0.01,Acu-Link.com,2013-05-19 21:46:00,
2013-05-19 18:02:00,73.8,69.6,29.86,ESE,112,2.2,-999.0,87,-99.99,,,0.01,Acu-Link.com,2013-05-19 22:02:00,
2013-05-19 18:17:00,74.7,70.5,29.83,NNE,22,0.0,-999.0,87,-99.99,,,0.01,Acu-Link.com,2013-05-19 22:17:00,
2013-05-19 18:32:00,74.7,70.9,29.85,NW,315,0.0,-999.0,88,-99.99,,,0.01,Acu-Link.com,2013-05-19 22:32:00,
2013-05-19 18:48:00,74.3,71.5,29.85,SSE,157,0.0,-999.0,91,-99.99,,,0.01,Acu-Link.com,2013-05-19 22:48:00,
2013-05-19 19:03:00,75.0,71.5,29.85,East,90,0.0,-999.0,89,-99.99,,,0.01,Acu-Link.com,2013-05-19 23:03:00,
2013-05-19 19:18:00,74.8,70.7,29.85,ESE,112,1.1,-999.0,87,-99.99,,,0.01,Acu-Link.com,2013-05-19 23:18:00,
2013-05-19 19:34:00,74.5,71.3,29.86,SE,135,0.0,-999.0,90,-99.99,,,0.01,Acu-Link.com,2013-05-19 23:34:00,
2013-05-19 19:49:00,74.1,71.6,29.85,NNW,337,0.0,-999.0,92,-99.99,,,0.01,Acu-Link.com,2013-05-19 23:49:00,
2013-05-19 20:04:00,73.4,71.2,29.88,WNW,292,0.0,-999.0,93,-99.99,,,0.01,Acu-Link.com,2013-05-20 00:04:00,
2013-05-19 20:19:00,73.0,70.9,29.89,NW,315,0.0,-999.0,93,-99.99,,,0.01,Acu-Link.com,2013-05-20 00:19:00,
2013-05-19 20:34:00,72.3,71.1,29.89,SE,135,0.0,-999.0,96,-99.99,,,0.01,Acu-Link.com,2013-05-20 00:34:00,
2013-05-19 20:50:00,72.0,70.8,29.88,ESE,112,0.0,-999.0,96,-99.99,,,0.01,Acu-Link.com,2013-05-20 00:50:00,
2013-05-19 21:05:00,71.8,70.9,29.89,NNE,22,0.0,-999.0,97,-99.99,,,0.01,Acu-Link.com,2013-05-20 01:05:00,
2013-05-19 21:20:00,71.6,70.7,29.89,NNE,22,0.0,-999.0,97,-99.99,,,0.01,Acu-Link.com,2013-05-20 01:20:00,
2013-05-19 21:36:00,71.4,70.8,29.89,NNE,22,0.0,-999.0,98,-99.99,,,0.01,Acu-Link.com,2013-05-20 01:36:00,
2013-05-19 21:51:00,71.2,70.6,29.90,NNE,22,0.0,-999.0,98,-99.99,,,0.01,Acu-Link.com,2013-05-20 01:51:00,
2013-05-19 22:06:00,71.2,70.6,29.92,NNE,22,0.0,-999.0,98,-99.99,,,0.01,Acu-Link.com,2013-05-20 02:06:00,
2013-05-19 22:22:00,71.2,70.6,29.92,NNE,22,0.0,-999.0,98,-99.99,,,0.01,Acu-Link.com,2013-05-20 02:22:00,
2013-05-19 22:37:00,71.1,70.8,29.93,WNW,292,1.1,-999.0,99,-99.99,,,0.01,Acu-Link.com,2013-05-20 02:37:00,
2013-05-19 22:52:00,70.7,68.9,29.97,NNW,337,1.6,-999.0,94,-99.99,,,0.01,Acu-Link.com,2013-05-20 02:52:00,
2013-05-19 23:07:00,69.8,67.0,29.97,NW,315,1.1,-999.0,91,-99.99,,,0.01,Acu-Link.com,2013-05-20 03:07:00,
2013-05-19 23:23:00,69.3,67.1,29.98,ENE,67,0.0,-999.0,93,-99.99,,,0.01,Acu-Link.com,2013-05-20 03:23:00,
2013-05-19 23:38:00,68.2,67.6,29.97,SE,135,0.0,-999.0,98,-99.99,,,0.06,Acu-Link.com,2013-05-20 03:38:00,
2013-05-19 23:53:00,67.1,66.8,29.95,SSE,157,1.6,-999.0,99,-99.99,,,0.51,Acu-Link.com,2013-05-20 03:53:00,